sensor_id;sensor_type;location;lat;lon;timestamp;P1;durP1;ratioP1;P2;durP2;ratioP2
43118;SDS011;28729;49.838;8.650;2022-09-20T00:03:40;7.50;;;2.92;;
43118;SDS011;28729;49.838;8.650;2022-09-20T00:07:43;6.82;;;3.10;;
43118;SDS011;28729;49.838;8.650;2022-09-20T00:11:45;7.30;;;2.00;;
43118;SDS011;28729;49.838;8.650;2022-09-20T00:15:47;10.82;;;3.20;;
43118;SDS011;28729;49.838;8.650;2022-09-20T00:19:49;7.57;;;2.85;;
43118;SDS011;28729;49.838;8.650;2022-09-20T00:23:51;11.52;;;2.92;;
43118;SDS011;28729;49.838;8.650;2022-09-20T00:27:52;8.10;;;3.17;;
43118;SDS011;28729;49.838;8.650;2022-09-20T00:31:54;7.28;;;2.85;;
43118;SDS011;28729;49.838;8.650;2022-09-20T00:35:57;9.02;;;2.63;;
43118;SDS011;28729;49.838;8.650;2022-09-20T00:39:59;9.55;;;3.28;;
43118;SDS011;28729;49.838;8.650;2022-09-20T00:44:01;6.75;;;3.03;;
43118;SDS011;28729;49.838;8.650;2022-09-20T00:48:05;10.90;;;3.22;;
43118;SDS011;28729;49.838;8.650;2022-09-20T00:52:24;10.18;;;3.20;;
43118;SDS011;28729;49.838;8.650;2022-09-20T00:56:31;8.25;;;3.30;;
43118;SDS011;28729;49.838;8.650;2022-09-20T01:00:36;8.27;;;2.70;;
43118;SDS011;28729;49.838;8.650;2022-09-20T01:04:39;11.55;;;3.35;;
43118;SDS011;28729;49.838;8.650;2022-09-20T01:08:44;13.15;;;3.10;;
43118;SDS011;28729;49.838;8.650;2022-09-20T01:12:51;7.07;;;2.97;;
43118;SDS011;28729;49.838;8.650;2022-09-20T01:16:54;6.88;;;3.05;;
43118;SDS011;28729;49.838;8.650;2022-09-20T01:20:58;9.82;;;3.47;;
43118;SDS011;28729;49.838;8.650;2022-09-20T01:33:43;7.57;;;3.40;;
43118;SDS011;28729;49.838;8.650;2022-09-20T01:38:39;14.52;;;3.70;;
43118;SDS011;28729;49.838;8.650;2022-09-20T01:46:39;9.35;;;3.28;;
43118;SDS011;28729;49.838;8.650;2022-09-20T01:55:39;11.75;;;3.78;;
43118;SDS011;28729;49.838;8.650;2022-09-20T02:00:01;6.68;;;3.70;;
43118;SDS011;28729;49.838;8.650;2022-09-20T02:08:50;8.45;;;3.60;;
43118;SDS011;28729;49.838;8.650;2022-09-20T02:17:43;10.93;;;3.95;;
43118;SDS011;28729;49.838;8.650;2022-09-20T02:22:02;12.75;;;4.18;;
43118;SDS011;28729;49.838;8.650;2022-09-20T02:30:56;12.75;;;4.28;;
43118;SDS011;28729;49.838;8.650;2022-09-20T02:39:42;13.60;;;4.78;;
43118;SDS011;28729;49.838;8.650;2022-09-20T02:48:09;16.00;;;5.15;;
43118;SDS011;28729;49.838;8.650;2022-09-20T02:52:15;14.70;;;4.32;;
43118;SDS011;28729;49.838;8.650;2022-09-20T02:56:46;12.75;;;5.15;;
43118;SDS011;28729;49.838;8.650;2022-09-20T03:01:01;13.82;;;4.82;;
43118;SDS011;28729;49.838;8.650;2022-09-20T03:05:18;15.90;;;5.03;;
43118;SDS011;28729;49.838;8.650;2022-09-20T03:09:35;11.35;;;4.50;;
43118;SDS011;28729;49.838;8.650;2022-09-20T03:13:57;14.93;;;5.75;;
43118;SDS011;28729;49.838;8.650;2022-09-20T03:40:27;9.02;;;4.63;;
43118;SDS011;28729;49.838;8.650;2022-09-20T03:53:51;11.30;;;5.05;;
43118;SDS011;28729;49.838;8.650;2022-09-20T04:02:38;14.55;;;5.55;;
43118;SDS011;28729;49.838;8.650;2022-09-20T04:15:16;25.17;;;6.65;;
43118;SDS011;28729;49.838;8.650;2022-09-20T04:23:43;12.90;;;5.35;;
43118;SDS011;28729;49.838;8.650;2022-09-20T04:27:57;14.43;;;6.22;;
43118;SDS011;28729;49.838;8.650;2022-09-20T04:32:06;18.45;;;6.03;;
43118;SDS011;28729;49.838;8.650;2022-09-20T04:45:42;16.10;;;6.32;;
43118;SDS011;28729;49.838;8.650;2022-09-20T05:15:51;17.05;;;6.28;;
43118;SDS011;28729;49.838;8.650;2022-09-20T05:24:36;19.63;;;6.70;;
43118;SDS011;28729;49.838;8.650;2022-09-20T05:28:49;20.42;;;7.15;;
43118;SDS011;28729;49.838;8.650;2022-09-20T05:33:28;17.08;;;6.82;;
43118;SDS011;28729;49.838;8.650;2022-09-20T05:41:46;19.08;;;7.05;;
43118;SDS011;28729;49.838;8.650;2022-09-20T05:50:51;13.70;;;4.50;;
43118;SDS011;28729;49.838;8.650;2022-09-20T06:03:32;17.48;;;7.13;;
43118;SDS011;28729;49.838;8.650;2022-09-20T06:16:24;15.85;;;6.45;;
43118;SDS011;28729;49.838;8.650;2022-09-20T06:29:29;15.07;;;5.88;;
43118;SDS011;28729;49.838;8.650;2022-09-20T06:33:43;13.65;;;5.47;;
43118;SDS011;28729;49.838;8.650;2022-09-20T06:37:55;12.02;;;5.55;;
43118;SDS011;28729;49.838;8.650;2022-09-20T06:42:22;9.07;;;4.33;;
43118;SDS011;28729;49.838;8.650;2022-09-20T06:46:28;9.52;;;4.97;;
43118;SDS011;28729;49.838;8.650;2022-09-20T06:50:31;13.98;;;5.25;;
43118;SDS011;28729;49.838;8.650;2022-09-20T06:54:36;13.40;;;5.35;;
43118;SDS011;28729;49.838;8.650;2022-09-20T06:58:38;10.30;;;4.93;;
43118;SDS011;28729;49.838;8.650;2022-09-20T07:02:42;12.43;;;4.45;;
43118;SDS011;28729;49.838;8.650;2022-09-20T07:06:44;10.45;;;4.28;;
43118;SDS011;28729;49.838;8.650;2022-09-20T07:10:46;10.32;;;4.28;;
43118;SDS011;28729;49.838;8.650;2022-09-20T07:14:48;10.20;;;4.73;;
43118;SDS011;28729;49.838;8.650;2022-09-20T07:18:50;11.00;;;4.70;;
43118;SDS011;28729;49.838;8.650;2022-09-20T07:22:52;12.98;;;4.50;;
43118;SDS011;28729;49.838;8.650;2022-09-20T07:26:58;12.05;;;4.75;;
43118;SDS011;28729;49.838;8.650;2022-09-20T07:31:01;14.30;;;4.78;;
43118;SDS011;28729;49.838;8.650;2022-09-20T07:35:03;8.65;;;4.00;;
43118;SDS011;28729;49.838;8.650;2022-09-20T07:39:05;13.43;;;5.07;;
43118;SDS011;28729;49.838;8.650;2022-09-20T07:43:08;10.43;;;4.43;;
43118;SDS011;28729;49.838;8.650;2022-09-20T07:47:10;15.00;;;4.80;;
43118;SDS011;28729;49.838;8.650;2022-09-20T07:51:14;8.52;;;3.50;;
43118;SDS011;28729;49.838;8.650;2022-09-20T07:55:15;17.02;;;3.97;;
43118;SDS011;28729;49.838;8.650;2022-09-20T07:59:17;18.20;;;5.13;;
43118;SDS011;28729;49.838;8.650;2022-09-20T08:03:19;11.18;;;4.22;;
43118;SDS011;28729;49.838;8.650;2022-09-20T08:07:21;14.50;;;5.73;;
43118;SDS011;28729;49.838;8.650;2022-09-20T08:11:24;17.58;;;5.20;;
43118;SDS011;28729;49.838;8.650;2022-09-20T08:15:30;16.48;;;5.45;;
43118;SDS011;28729;49.838;8.650;2022-09-20T08:19:32;18.15;;;4.88;;
43118;SDS011;28729;49.838;8.650;2022-09-20T08:23:36;12.25;;;4.68;;
43118;SDS011;28729;49.838;8.650;2022-09-20T08:27:39;13.30;;;5.32;;
43118;SDS011;28729;49.838;8.650;2022-09-20T08:31:41;10.07;;;4.90;;
43118;SDS011;28729;49.838;8.650;2022-09-20T08:35:43;14.35;;;5.40;;
43118;SDS011;28729;49.838;8.650;2022-09-20T08:39:49;13.90;;;5.03;;
43118;SDS011;28729;49.838;8.650;2022-09-20T08:44:03;14.43;;;5.40;;
43118;SDS011;28729;49.838;8.650;2022-09-20T08:48:12;12.88;;;5.45;;
43118;SDS011;28729;49.838;8.650;2022-09-20T08:52:18;9.95;;;4.90;;
43118;SDS011;28729;49.838;8.650;2022-09-20T08:56:27;15.38;;;4.78;;
43118;SDS011;28729;49.838;8.650;2022-09-20T09:00:33;16.85;;;5.00;;
43118;SDS011;28729;49.838;8.650;2022-09-20T09:04:37;10.40;;;4.75;;
43118;SDS011;28729;49.838;8.650;2022-09-20T09:08:38;10.85;;;5.22;;
43118;SDS011;28729;49.838;8.650;2022-09-20T09:12:40;12.33;;;4.17;;
43118;SDS011;28729;49.838;8.650;2022-09-20T09:16:49;14.93;;;4.85;;
43118;SDS011;28729;49.838;8.650;2022-09-20T09:20:50;13.18;;;5.10;;
43118;SDS011;28729;49.838;8.650;2022-09-20T09:29:18;13.77;;;5.45;;
43118;SDS011;28729;49.838;8.650;2022-09-20T09:33:28;17.55;;;4.13;;
43118;SDS011;28729;49.838;8.650;2022-09-20T09:37:31;12.40;;;3.92;;
43118;SDS011;28729;49.838;8.650;2022-09-20T09:41:33;6.97;;;3.40;;
43118;SDS011;28729;49.838;8.650;2022-09-20T09:49:54;8.85;;;2.97;;
43118;SDS011;28729;49.838;8.650;2022-09-20T09:54:02;9.50;;;3.25;;
43118;SDS011;28729;49.838;8.650;2022-09-20T09:58:06;9.63;;;3.38;;
43118;SDS011;28729;49.838;8.650;2022-09-20T10:06:48;10.40;;;3.20;;
43118;SDS011;28729;49.838;8.650;2022-09-20T10:15:48;9.15;;;2.50;;
43118;SDS011;28729;49.838;8.650;2022-09-20T10:24:24;9.10;;;2.60;;
43118;SDS011;28729;49.838;8.650;2022-09-20T10:37:27;5.78;;;1.83;;
43118;SDS011;28729;49.838;8.650;2022-09-20T10:41:44;10.38;;;2.03;;
43118;SDS011;28729;49.838;8.650;2022-09-20T11:03:54;4.07;;;2.03;;
43118;SDS011;28729;49.838;8.650;2022-09-20T11:08:19;6.53;;;2.85;;
43118;SDS011;28729;49.838;8.650;2022-09-20T11:21:04;6.93;;;2.42;;
43118;SDS011;28729;49.838;8.650;2022-09-20T11:29:46;5.22;;;2.35;;
43118;SDS011;28729;49.838;8.650;2022-09-20T11:34:04;6.47;;;1.92;;
43118;SDS011;28729;49.838;8.650;2022-09-20T11:38:20;6.65;;;2.47;;
43118;SDS011;28729;49.838;8.650;2022-09-20T11:42:29;4.60;;;2.25;;
43118;SDS011;28729;49.838;8.650;2022-09-20T11:46:48;7.35;;;2.35;;
43118;SDS011;28729;49.838;8.650;2022-09-20T11:59:59;5.05;;;2.53;;
43118;SDS011;28729;49.838;8.650;2022-09-20T12:08:39;7.63;;;2.40;;
43118;SDS011;28729;49.838;8.650;2022-09-20T12:12:42;6.60;;;2.28;;
43118;SDS011;28729;49.838;8.650;2022-09-20T12:16:47;6.80;;;2.80;;
43118;SDS011;28729;49.838;8.650;2022-09-20T12:21:12;7.93;;;2.10;;
43118;SDS011;28729;49.838;8.650;2022-09-20T12:25:37;4.10;;;1.70;;
43118;SDS011;28729;49.838;8.650;2022-09-20T12:29:49;4.65;;;2.33;;
43118;SDS011;28729;49.838;8.650;2022-09-20T12:34:49;5.75;;;2.33;;
43118;SDS011;28729;49.838;8.650;2022-09-20T12:38:26;5.38;;;1.98;;
43118;SDS011;28729;49.838;8.650;2022-09-20T12:42:31;5.63;;;2.80;;
43118;SDS011;28729;49.838;8.650;2022-09-20T12:50:41;6.28;;;1.88;;
43118;SDS011;28729;49.838;8.650;2022-09-20T12:55:02;5.35;;;2.17;;
43118;SDS011;28729;49.838;8.650;2022-09-20T12:59:24;5.70;;;2.38;;
43118;SDS011;28729;49.838;8.650;2022-09-20T13:03:35;4.38;;;2.03;;
43118;SDS011;28729;49.838;8.650;2022-09-20T13:07:41;7.85;;;1.95;;
43118;SDS011;28729;49.838;8.650;2022-09-20T13:11:50;4.90;;;2.15;;
43118;SDS011;28729;49.838;8.650;2022-09-20T13:15:57;6.00;;;2.40;;
43118;SDS011;28729;49.838;8.650;2022-09-20T13:20:01;4.68;;;2.05;;
43118;SDS011;28729;49.838;8.650;2022-09-20T13:24:04;6.28;;;2.15;;
43118;SDS011;28729;49.838;8.650;2022-09-20T13:32:30;4.80;;;1.52;;
43118;SDS011;28729;49.838;8.650;2022-09-20T13:36:32;3.35;;;1.60;;
43118;SDS011;28729;49.838;8.650;2022-09-20T13:40:38;5.75;;;1.92;;
43118;SDS011;28729;49.838;8.650;2022-09-20T13:44:42;3.90;;;2.00;;
43118;SDS011;28729;49.838;8.650;2022-09-20T13:48:47;7.28;;;2.58;;
43118;SDS011;28729;49.838;8.650;2022-09-20T13:52:54;6.00;;;2.28;;
43118;SDS011;28729;49.838;8.650;2022-09-20T13:57:02;6.63;;;2.13;;
43118;SDS011;28729;49.838;8.650;2022-09-20T14:01:26;6.25;;;2.28;;
43118;SDS011;28729;49.838;8.650;2022-09-20T14:05:31;5.82;;;2.00;;
43118;SDS011;28729;49.838;8.650;2022-09-20T14:09:34;5.13;;;2.13;;
43118;SDS011;28729;49.838;8.650;2022-09-20T14:13:40;4.95;;;2.05;;
43118;SDS011;28729;49.838;8.650;2022-09-20T14:17:44;7.30;;;2.20;;
43118;SDS011;28729;49.838;8.650;2022-09-20T14:21:46;6.15;;;2.33;;
43118;SDS011;28729;49.838;8.650;2022-09-20T14:30:35;4.30;;;2.30;;
43118;SDS011;28729;49.838;8.650;2022-09-20T14:34:37;4.55;;;2.42;;
43118;SDS011;28729;49.838;8.650;2022-09-20T14:38:42;7.55;;;2.63;;
43118;SDS011;28729;49.838;8.650;2022-09-20T14:42:46;5.97;;;2.10;;
43118;SDS011;28729;49.838;8.650;2022-09-20T14:46:50;5.35;;;2.45;;
43118;SDS011;28729;49.838;8.650;2022-09-20T14:51:07;6.68;;;2.45;;
43118;SDS011;28729;49.838;8.650;2022-09-20T15:03:24;7.00;;;2.00;;
43118;SDS011;28729;49.838;8.650;2022-09-20T15:07:26;4.85;;;2.10;;
43118;SDS011;28729;49.838;8.650;2022-09-20T15:11:29;5.57;;;2.23;;
43118;SDS011;28729;49.838;8.650;2022-09-20T15:15:30;8.65;;;2.33;;
43118;SDS011;28729;49.838;8.650;2022-09-20T15:19:32;3.78;;;1.83;;
43118;SDS011;28729;49.838;8.650;2022-09-20T15:23:34;5.30;;;2.08;;
43118;SDS011;28729;49.838;8.650;2022-09-20T15:27:37;6.50;;;2.47;;
43118;SDS011;28729;49.838;8.650;2022-09-20T15:31:38;5.38;;;1.98;;
43118;SDS011;28729;49.838;8.650;2022-09-20T15:35:43;13.48;;;2.88;;
43118;SDS011;28729;49.838;8.650;2022-09-20T15:43:47;5.15;;;1.60;;
43118;SDS011;28729;49.838;8.650;2022-09-20T15:47:51;3.60;;;1.88;;
43118;SDS011;28729;49.838;8.650;2022-09-20T15:51:55;5.07;;;1.48;;
43118;SDS011;28729;49.838;8.650;2022-09-20T15:55:57;4.57;;;1.73;;
43118;SDS011;28729;49.838;8.650;2022-09-20T16:00:03;2.67;;;1.33;;
43118;SDS011;28729;49.838;8.650;2022-09-20T16:04:09;2.83;;;1.17;;
43118;SDS011;28729;49.838;8.650;2022-09-20T16:08:15;3.15;;;1.17;;
43118;SDS011;28729;49.838;8.650;2022-09-20T16:12:18;3.57;;;0.90;;
43118;SDS011;28729;49.838;8.650;2022-09-20T16:16:21;1.42;;;0.80;;
43118;SDS011;28729;49.838;8.650;2022-09-20T16:20:22;2.73;;;1.03;;
43118;SDS011;28729;49.838;8.650;2022-09-20T16:24:26;2.08;;;0.90;;
43118;SDS011;28729;49.838;8.650;2022-09-20T16:28:29;2.28;;;1.08;;
43118;SDS011;28729;49.838;8.650;2022-09-20T16:32:31;4.50;;;0.90;;
43118;SDS011;28729;49.838;8.650;2022-09-20T16:36:33;1.88;;;0.90;;
43118;SDS011;28729;49.838;8.650;2022-09-20T16:40:34;2.58;;;1.17;;
43118;SDS011;28729;49.838;8.650;2022-09-20T16:44:37;3.03;;;0.83;;
43118;SDS011;28729;49.838;8.650;2022-09-20T16:48:40;4.75;;;1.20;;
43118;SDS011;28729;49.838;8.650;2022-09-20T16:52:42;2.70;;;0.95;;
43118;SDS011;28729;49.838;8.650;2022-09-20T16:56:45;1.73;;;0.90;;
43118;SDS011;28729;49.838;8.650;2022-09-20T17:00:48;5.82;;;1.10;;
43118;SDS011;28729;49.838;8.650;2022-09-20T17:04:50;2.95;;;1.35;;
43118;SDS011;28729;49.838;8.650;2022-09-20T17:08:53;4.95;;;1.20;;
43118;SDS011;28729;49.838;8.650;2022-09-20T17:12:59;3.20;;;1.50;;
43118;SDS011;28729;49.838;8.650;2022-09-20T17:17:01;3.83;;;1.30;;
43118;SDS011;28729;49.838;8.650;2022-09-20T17:21:06;3.33;;;1.77;;
43118;SDS011;28729;49.838;8.650;2022-09-20T17:25:09;7.07;;;1.30;;
43118;SDS011;28729;49.838;8.650;2022-09-20T17:29:14;4.28;;;1.23;;
43118;SDS011;28729;49.838;8.650;2022-09-20T17:33:17;3.22;;;1.33;;
43118;SDS011;28729;49.838;8.650;2022-09-20T17:37:19;2.75;;;1.45;;
43118;SDS011;28729;49.838;8.650;2022-09-20T17:41:21;5.85;;;1.92;;
43118;SDS011;28729;49.838;8.650;2022-09-20T17:45:23;4.60;;;1.47;;
43118;SDS011;28729;49.838;8.650;2022-09-20T17:49:25;5.60;;;1.60;;
43118;SDS011;28729;49.838;8.650;2022-09-20T17:53:31;2.88;;;1.38;;
43118;SDS011;28729;49.838;8.650;2022-09-20T17:57:34;6.82;;;1.60;;
43118;SDS011;28729;49.838;8.650;2022-09-20T18:01:37;4.32;;;1.50;;
43118;SDS011;28729;49.838;8.650;2022-09-20T18:05:40;7.38;;;1.30;;
43118;SDS011;28729;49.838;8.650;2022-09-20T18:09:42;8.90;;;1.80;;
43118;SDS011;28729;49.838;8.650;2022-09-20T18:13:43;3.58;;;1.55;;
43118;SDS011;28729;49.838;8.650;2022-09-20T18:17:45;3.72;;;1.80;;
43118;SDS011;28729;49.838;8.650;2022-09-20T18:21:52;3.95;;;1.65;;
43118;SDS011;28729;49.838;8.650;2022-09-20T18:25:54;5.68;;;1.70;;
43118;SDS011;28729;49.838;8.650;2022-09-20T18:30:14;2.85;;;1.50;;
43118;SDS011;28729;49.838;8.650;2022-09-20T18:34:18;4.97;;;1.80;;
43118;SDS011;28729;49.838;8.650;2022-09-20T18:38:24;6.90;;;1.60;;
43118;SDS011;28729;49.838;8.650;2022-09-20T18:42:26;4.55;;;1.52;;
43118;SDS011;28729;49.838;8.650;2022-09-20T18:46:33;4.32;;;1.45;;
43118;SDS011;28729;49.838;8.650;2022-09-20T18:51:02;5.63;;;1.60;;
43118;SDS011;28729;49.838;8.650;2022-09-20T18:55:51;3.40;;;1.80;;
43118;SDS011;28729;49.838;8.650;2022-09-20T19:06:01;5.28;;;2.05;;
43118;SDS011;28729;49.838;8.650;2022-09-20T19:28:07;3.88;;;2.05;;
43118;SDS011;28729;49.838;8.650;2022-09-20T19:32:13;5.03;;;1.95;;
43118;SDS011;28729;49.838;8.650;2022-09-20T19:36:22;13.20;;;5.93;;
43118;SDS011;28729;49.838;8.650;2022-09-20T19:49:22;4.75;;;2.47;;
43118;SDS011;28729;49.838;8.650;2022-09-20T19:53:32;6.97;;;1.75;;
43118;SDS011;28729;49.838;8.650;2022-09-20T19:57:35;4.47;;;2.07;;
43118;SDS011;28729;49.838;8.650;2022-09-20T20:01:43;5.47;;;2.10;;
43118;SDS011;28729;49.838;8.650;2022-09-20T20:05:47;4.83;;;2.10;;
43118;SDS011;28729;49.838;8.650;2022-09-20T20:23:34;2.75;;;2.05;;
43118;SDS011;28729;49.838;8.650;2022-09-20T20:27:43;6.10;;;2.45;;
43118;SDS011;28729;49.838;8.650;2022-09-20T20:31:45;4.63;;;2.50;;
43118;SDS011;28729;49.838;8.650;2022-09-20T20:35:50;8.63;;;2.63;;
43118;SDS011;28729;49.838;8.650;2022-09-20T20:39:59;6.53;;;2.53;;
43118;SDS011;28729;49.838;8.650;2022-09-20T20:44:01;3.58;;;2.30;;
43118;SDS011;28729;49.838;8.650;2022-09-20T20:48:06;8.00;;;3.00;;
43118;SDS011;28729;49.838;8.650;2022-09-20T20:52:08;8.27;;;4.32;;
43118;SDS011;28729;49.838;8.650;2022-09-20T20:56:11;5.70;;;3.20;;
43118;SDS011;28729;49.838;8.650;2022-09-20T21:00:14;5.88;;;2.70;;
43118;SDS011;28729;49.838;8.650;2022-09-20T21:04:16;7.68;;;2.80;;
43118;SDS011;28729;49.838;8.650;2022-09-20T21:08:18;7.25;;;2.95;;
43118;SDS011;28729;49.838;8.650;2022-09-20T21:12:20;10.38;;;3.00;;
43118;SDS011;28729;49.838;8.650;2022-09-20T21:16:25;4.88;;;2.60;;
43118;SDS011;28729;49.838;8.650;2022-09-20T21:20:28;6.28;;;2.90;;
43118;SDS011;28729;49.838;8.650;2022-09-20T21:24:31;6.43;;;2.72;;
43118;SDS011;28729;49.838;8.650;2022-09-20T21:28:33;5.30;;;2.50;;
43118;SDS011;28729;49.838;8.650;2022-09-20T21:32:37;6.10;;;2.50;;
43118;SDS011;28729;49.838;8.650;2022-09-20T21:36:38;6.60;;;3.15;;
43118;SDS011;28729;49.838;8.650;2022-09-20T21:40:45;8.35;;;3.00;;
43118;SDS011;28729;49.838;8.650;2022-09-20T21:44:46;9.35;;;3.15;;
43118;SDS011;28729;49.838;8.650;2022-09-20T21:48:48;5.80;;;2.90;;
43118;SDS011;28729;49.838;8.650;2022-09-20T21:52:52;8.43;;;3.05;;
43118;SDS011;28729;49.838;8.650;2022-09-20T21:56:53;9.57;;;3.65;;
43118;SDS011;28729;49.838;8.650;2022-09-20T22:01:03;8.82;;;3.47;;
43118;SDS011;28729;49.838;8.650;2022-09-20T22:05:11;7.25;;;3.10;;
43118;SDS011;28729;49.838;8.650;2022-09-20T22:09:14;7.18;;;2.92;;
43118;SDS011;28729;49.838;8.650;2022-09-20T22:13:17;6.75;;;3.47;;
43118;SDS011;28729;49.838;8.650;2022-09-20T22:17:19;8.68;;;3.40;;
43118;SDS011;28729;49.838;8.650;2022-09-20T22:21:22;7.75;;;3.50;;
43118;SDS011;28729;49.838;8.650;2022-09-20T22:25:25;10.23;;;3.33;;
43118;SDS011;28729;49.838;8.650;2022-09-20T22:29:26;12.75;;;4.00;;
43118;SDS011;28729;49.838;8.650;2022-09-20T22:33:28;13.80;;;6.18;;
43118;SDS011;28729;49.838;8.650;2022-09-20T22:41:33;9.07;;;4.03;;
43118;SDS011;28729;49.838;8.650;2022-09-20T22:45:35;16.35;;;4.55;;
43118;SDS011;28729;49.838;8.650;2022-09-20T22:49:37;8.20;;;3.97;;
43118;SDS011;28729;49.838;8.650;2022-09-20T22:53:38;8.13;;;3.90;;
43118;SDS011;28729;49.838;8.650;2022-09-20T23:01:44;7.60;;;3.13;;
43118;SDS011;28729;49.838;8.650;2022-09-20T23:05:48;7.32;;;3.88;;
43118;SDS011;28729;49.838;8.650;2022-09-20T23:09:50;7.13;;;3.95;;
43118;SDS011;28729;49.838;8.650;2022-09-20T23:13:52;7.40;;;3.63;;
43118;SDS011;28729;49.838;8.650;2022-09-20T23:17:55;7.07;;;3.38;;
43118;SDS011;28729;49.838;8.650;2022-09-20T23:21:57;13.07;;;4.53;;
43118;SDS011;28729;49.838;8.650;2022-09-20T23:26:02;9.10;;;4.18;;
43118;SDS011;28729;49.838;8.650;2022-09-20T23:30:07;5.28;;;3.38;;
43118;SDS011;28729;49.838;8.650;2022-09-20T23:34:09;12.70;;;3.75;;
43118;SDS011;28729;49.838;8.650;2022-09-20T23:38:11;6.03;;;3.75;;
43118;SDS011;28729;49.838;8.650;2022-09-20T23:42:14;9.77;;;3.88;;
43118;SDS011;28729;49.838;8.650;2022-09-20T23:46:16;6.65;;;3.78;;
43118;SDS011;28729;49.838;8.650;2022-09-20T23:50:19;7.78;;;3.65;;
43118;SDS011;28729;49.838;8.650;2022-09-20T23:54:21;8.40;;;3.45;;
43118;SDS011;28729;49.838;8.650;2022-09-20T23:58:23;8.30;;;3.60;;
